Time;durP1;ratioP1;P1;durP2;ratioP2;P2;SDS_P1;SDS_P2;PMS_P1;PMS_P2;Temp;Humidity;BMP_temperature;BMP_pressure;BME280_temperature;BME280_humidity;BME280_pressure;Samples;Min_cycle;Max_cycle;Signal;HPM_P1;HPM_P2
2022/08/14 00:00:43;;;;;;;3.67;2.03;;;;;;;23.01;68.91;98446.50;4933852;29;20235;-63
2022/08/14 00:03:19;;;;;;;3.22;2.00;;;;;;;22.94;68.55;98448.28;4934027;29;20215;-62
2022/08/14 00:05:46;;;;;;;4.20;2.28;;;;;;;22.87;68.82;98452.72;4934063;29;20345;-63
2022/08/14 00:08:12;;;;;;;3.28;2.28;;;;;;;22.81;68.99;98442.09;4933966;29;20204;-63
2022/08/14 00:10:39;;;;;;;2.70;2.05;;;;;;;22.76;69.51;98443.72;4934298;29;20705;-63
2022/08/14 00:13:07;;;;;;;2.67;1.83;;;;;;;22.67;69.35;98440.53;4933837;29;20717;-63
2022/08/14 00:15:37;;;;;;;3.40;2.10;;;;;;;22.65;69.59;98429.50;4933734;29;20315;-63
2022/08/14 00:18:06;;;;;;;2.60;1.93;;;;;;;22.56;70.32;98428.94;4934013;29;20262;-63
2022/08/14 00:20:37;;;;;;;2.95;1.98;;;;;;;22.53;70.43;98423.34;4933645;29;20697;-63
2022/08/14 00:23:06;;;;;;;4.25;2.00;;;;;;;22.47;70.54;98424.16;4933785;29;20207;-63
2022/08/14 00:25:33;;;;;;;3.67;2.43;;;;;;;22.46;71.24;98425.16;4933770;29;20238;-63
2022/08/14 00:28:00;;;;;;;2.80;1.77;;;;;;;22.46;71.07;98423.34;4932482;29;20203;-63
2022/08/14 00:30:27;;;;;;;2.30;1.87;;;;;;;22.49;71.33;98422.16;4933699;29;20243;-63
2022/08/14 00:32:55;;;;;;;2.93;2.20;;;;;;;22.41;71.48;98430.19;4933500;29;20233;-63
2022/08/14 00:35:22;;;;;;;3.77;2.40;;;;;;;22.40;71.92;98433.78;4933241;29;20228;-63
2022/08/14 00:37:49;;;;;;;4.40;2.50;;;;;;;22.38;71.85;98432.19;4933399;29;20214;-63
2022/08/14 00:40:18;;;;;;;4.63;2.43;;;;;;;22.34;72.38;98433.59;4933607;29;20223;-63
2022/08/14 00:42:45;;;;;;;4.15;2.08;;;;;;;22.33;72.37;98433.78;4933270;29;20688;-63
2022/08/14 00:45:15;;;;;;;3.67;2.07;;;;;;;22.32;72.44;98429.59;4933510;29;20268;-63
2022/08/14 00:47:43;;;;;;;3.67;2.30;;;;;;;22.25;73.46;98437.41;4933066;29;20249;-63
2022/08/14 00:50:13;;;;;;;4.77;2.07;;;;;;;22.18;73.53;98431.41;4933121;29;20226;-63
2022/08/14 00:52:44;;;;;;;3.17;1.97;;;;;;;22.16;73.60;98433.38;4933318;29;20267;-63
2022/08/14 00:55:12;;;;;;;3.33;2.30;;;;;;;22.19;73.69;98417.38;4933507;29;20232;-63
2022/08/14 00:57:39;;;;;;;2.30;1.97;;;;;;;22.18;73.73;98420.97;4933239;29;20203;-63
2022/08/14 01:00:11;;;;;;;2.23;1.70;;;;;;;22.20;73.75;98424.19;4932961;29;20238;-63
2022/08/14 01:02:42;;;;;;;2.83;2.10;;;;;;;22.22;73.50;98413.56;4933122;29;20292;-63
2022/08/14 01:05:22;;;;;;;3.00;1.93;;;;;;;22.22;73.97;98410.97;4932916;29;20694;-63
2022/08/14 01:07:52;;;;;;;2.70;1.97;;;;;;;22.17;74.23;98408.16;4932764;29;20626;-63
2022/08/14 01:10:20;;;;;;;4.73;1.83;;;;;;;22.11;74.09;98409.75;4932881;29;20226;-63
2022/08/14 01:12:48;;;;;;;2.73;1.93;;;;;;;22.10;74.63;98408.13;4932874;29;20260;-63
2022/08/14 01:15:20;;;;;;;3.90;2.07;;;;;;;22.11;74.49;98410.56;4932944;29;20231;-63
2022/08/14 01:23:35;;;;;;;2.97;1.80;;;;;;;22.06;74.48;98399.13;4908905;29;20225;-63
2022/08/14 01:26:04;;;;;;;3.57;2.00;;;;;;;21.97;75.47;98400.34;4932835;29;20260;-63
2022/08/14 01:28:36;;;;;;;2.87;2.03;;;;;;;21.88;75.72;98400.53;4932662;29;20218;-63
2022/08/14 01:31:08;;;;;;;3.57;2.03;;;;;;;21.80;76.23;98392.94;4932450;29;20370;-63
2022/08/14 01:33:39;;;;;;;2.50;1.97;;;;;;;21.81;76.62;98393.72;4932757;29;20206;-63
2022/08/14 01:36:09;;;;;;;3.10;1.80;;;;;;;21.80;76.37;98395.53;4932805;29;20233;-63
2022/08/14 01:38:39;;;;;;;2.20;1.70;;;;;;;21.74;76.50;98393.75;4932356;29;20215;-63
2022/08/14 01:41:08;;;;;;;2.77;1.90;;;;;;;21.74;77.02;98393.75;4932127;29;20230;-63
2022/08/14 01:43:44;;;;;;;3.93;1.87;;;;;;;21.74;76.99;98392.94;4932662;29;20211;-63
2022/08/14 01:46:11;;;;;;;1.70;1.60;;;;;;;21.75;76.97;98394.53;4932327;29;20245;-63
2022/08/14 01:48:43;;;;;;;2.37;1.77;;;;;;;21.77;76.87;98392.53;4932562;29;20221;-63
2022/08/14 01:51:10;;;;;;;2.43;1.97;;;;;;;21.76;76.83;98391.75;4932805;29;20242;-63
2022/08/14 01:53:40;;;;;;;3.83;2.17;;;;;;;21.65;77.35;98384.53;4932292;29;20212;-63
2022/08/14 01:56:07;;;;;;;3.03;2.00;;;;;;;21.56;77.61;98390.94;4932346;29;20239;-63
2022/08/14 01:58:34;;;;;;;2.93;2.00;;;;;;;21.59;77.90;98390.53;4932455;29;20213;-63
2022/08/14 02:01:03;;;;;;;2.47;1.80;;;;;;;21.60;77.63;98394.72;4931979;29;20879;-63
2022/08/14 02:03:33;;;;;;;4.03;2.07;;;;;;;21.63;77.74;98396.94;4932154;29;20213;-63
2022/08/14 02:06:01;;;;;;;3.00;2.03;;;;;;;21.64;77.75;98395.91;4932121;29;20237;-63
2022/08/14 02:08:29;;;;;;;2.10;1.80;;;;;;;21.56;78.06;98394.31;4932192;29;20676;-63
2022/08/14 02:11:21;;;;;;;3.57;2.00;;;;;;;21.60;77.51;98392.13;4932028;29;20256;-63
2022/08/14 02:13:51;;;;;;;3.70;1.83;;;;;;;21.61;78.11;98388.50;4932055;29;20219;-63
2022/08/14 02:16:20;;;;;;;3.27;2.13;;;;;;;21.56;78.12;98390.94;4932349;29;20606;-63
2022/08/14 02:18:48;;;;;;;5.67;2.17;;;;;;;21.55;78.44;98404.91;4931644;29;20689;-63
2022/08/14 02:21:17;;;;;;;2.73;2.10;;;;;;;21.54;78.18;98411.13;4931758;29;20224;-63
2022/08/14 02:23:45;;;;;;;3.13;2.23;;;;;;;21.56;78.16;98411.75;4931916;29;20304;-63
2022/08/14 02:26:20;;;;;;;3.90;2.03;;;;;;;21.69;77.94;98409.13;4931778;29;20224;-63
2022/08/14 02:28:49;;;;;;;3.37;2.20;;;;;;;21.73;78.08;98399.94;4931777;29;20212;-63
2022/08/14 02:31:16;;;;;;;3.67;2.00;;;;;;;21.71;78.15;98404.53;4931964;29;20320;-63
2022/08/14 02:33:43;;;;;;;2.77;1.80;;;;;;;21.63;78.49;98407.34;4932070;29;20205;-63
2022/08/14 02:36:11;;;;;;;2.27;1.87;;;;;;;21.66;78.28;98401.72;4932104;29;20583;-63
2022/08/14 02:38:39;;;;;;;2.70;2.17;;;;;;;21.65;78.45;98397.53;4931843;29;20221;-63
2022/08/14 02:41:10;;;;;;;2.60;1.80;;;;;;;21.63;78.48;98407.34;4931868;29;20240;-63
2022/08/14 02:43:39;;;;;;;2.90;1.90;;;;;;;21.61;78.78;98414.53;4931877;29;20601;-63
2022/08/14 02:46:09;;;;;;;3.73;1.90;;;;;;;21.67;78.75;98418.94;4931852;29;20234;-63
2022/08/14 02:48:38;;;;;;;2.00;1.80;;;;;;;21.72;78.37;98415.75;4931805;29;20206;-63
2022/08/14 02:51:09;;;;;;;2.70;1.93;;;;;;;21.65;78.77;98411.34;4932104;29;20233;-63
2022/08/14 02:53:38;;;;;;;2.60;1.97;;;;;;;21.66;78.99;98406.94;4935598;29;20206;-63
2022/08/14 02:56:06;;;;;;;4.33;2.00;;;;;;;21.64;78.77;98408.94;4935683;29;20292;-63
2022/08/14 02:58:37;;;;;;;2.93;1.83;;;;;;;21.58;79.06;98399.31;4935134;29;20221;-63
2022/08/14 03:01:07;;;;;;;3.20;2.17;;;;;;;21.59;79.39;98411.34;4935080;29;20258;-63
2022/08/14 03:03:35;;;;;;;3.47;2.07;;;;;;;21.58;79.43;98425.31;4935723;29;20437;-63
2022/08/14 03:06:03;;;;;;;3.00;2.00;;;;;;;21.58;79.34;98417.53;4934908;29;20234;-63
2022/08/14 03:08:32;;;;;;;3.90;2.17;;;;;;;21.56;78.99;98398.72;4935052;29;20728;-63
2022/08/14 03:11:00;;;;;;;2.33;1.87;;;;;;;21.45;79.20;98411.31;4934932;29;20230;-63
2022/08/14 03:13:27;;;;;;;2.93;1.93;;;;;;;21.41;79.91;98425.72;4935110;29;20206;-63
2022/08/14 03:15:54;;;;;;;3.97;2.17;;;;;;;21.43;80.37;98428.91;4935298;29;20280;-63
2022/08/14 03:18:24;;;;;;;3.07;1.93;;;;;;;21.43;80.03;98405.50;4934945;29;20220;-63
2022/08/14 03:20:51;;;;;;;2.97;2.00;;;;;;;21.35;80.60;98425.66;4934933;29;20226;-63
2022/08/14 03:23:19;;;;;;;3.30;1.90;;;;;;;21.29;80.76;98427.22;4934777;29;20206;-63
2022/08/14 03:25:46;;;;;;;4.60;3.00;;;;;;;21.33;80.86;98412.84;4934675;29;20225;-63
2022/08/14 03:28:14;;;;;;;2.83;1.80;;;;;;;21.28;80.79;98396.25;4934551;29;20243;-63
2022/08/14 03:30:41;;;;;;;2.83;2.00;;;;;;;21.23;80.92;98409.81;4934521;29;20613;-63
2022/08/14 03:33:10;;;;;;;2.53;1.97;;;;;;;21.25;81.09;98413.03;4934611;29;20207;-63
2022/08/14 03:35:40;;;;;;;3.60;2.13;;;;;;;21.32;81.30;98411.25;4934781;29;20222;-63
2022/08/14 03:38:09;;;;;;;5.30;2.27;;;;;;;21.36;81.18;98412.50;4934801;29;20211;-63
2022/08/14 03:40:37;;;;;;;4.90;2.53;;;;;;;21.35;80.95;98410.88;4934392;29;20237;-63
2022/08/14 03:43:04;;;;;;;4.23;2.37;;;;;;;21.42;81.00;98406.50;4934590;29;20210;-63
2022/08/14 03:45:32;;;;;;;3.30;2.20;;;;;;;21.41;80.87;98409.28;4934413;29;20313;-63
2022/08/14 03:47:59;;;;;;;4.87;2.70;;;;;;;21.36;81.25;98420.28;4934364;29;20458;-63
2022/08/14 03:50:27;;;;;;;3.93;2.13;;;;;;;21.43;81.38;98408.09;4934514;29;20224;-63
2022/08/14 03:52:55;;;;;;;3.57;2.50;;;;;;;21.48;81.10;98421.31;4934419;29;20265;-63
2022/08/14 03:55:22;;;;;;;4.27;2.20;;;;;;;21.47;81.14;98413.72;4934508;29;20230;-63
2022/08/14 03:57:49;;;;;;;4.70;2.17;;;;;;;21.54;80.95;98403.31;4934241;29;20270;-63
2022/08/14 04:00:17;;;;;;;2.97;2.00;;;;;;;21.58;80.29;98402.72;4934138;29;20724;-63
2022/08/14 04:02:43;;;;;;;2.73;1.83;;;;;;;21.51;80.82;98408.94;4933691;29;20223;-63
2022/08/14 04:05:10;;;;;;;2.53;1.87;;;;;;;21.58;80.80;98405.31;4934302;29;20245;-63
2022/08/14 04:07:38;;;;;;;1.97;1.37;;;;;;;21.62;81.16;98400.53;4933954;29;20640;-63
2022/08/14 04:10:08;;;;;;;1.23;1.13;;;;;;;21.65;80.83;98415.75;4933909;29;20230;-63
2022/08/14 04:12:35;;;;;;;2.37;1.60;;;;;;;21.60;80.91;98413.72;4934405;29;20220;-63
2022/08/14 04:15:02;;;;;;;3.50;1.87;;;;;;;21.70;81.04;98392.53;4934123;29;20614;-63
2022/08/14 04:17:29;;;;;;;1.33;1.13;;;;;;;21.76;80.41;98391.75;4933990;29;20206;-63
2022/08/14 04:19:56;;;;;;;1.03;0.90;;;;;;;21.75;80.85;98405.72;4933932;29;20664;-63
2022/08/14 04:22:24;;;;;;;0.70;0.70;;;;;;;21.72;80.50;98395.72;4933611;29;20201;-63
2022/08/14 04:24:52;;;;;;;1.10;0.87;;;;;;;21.83;81.06;98392.53;4933955;29;20242;-63
2022/08/14 04:27:20;;;;;;;1.23;1.07;;;;;;;21.80;81.17;98392.94;4933630;29;20244;-63
2022/08/14 04:29:47;;;;;;;1.00;0.87;;;;;;;21.86;81.03;98397.34;4933721;29;20231;-63
2022/08/14 04:32:14;;;;;;;0.50;0.50;;;;;;;21.93;81.50;98379.94;4934004;29;20206;-63
2022/08/14 04:34:41;;;;;;;1.93;1.10;;;;;;;21.93;81.63;98392.94;4933753;29;20339;-63
2022/08/14 04:45:31;;;;;;;1.13;1.03;;;;;;;21.96;80.87;98385.72;4933587;29;20264;-63
2022/08/14 04:48:12;;;;;;;1.33;1.00;;;;;;;22.00;80.66;98387.72;4933280;29;20241;-63
2022/08/14 04:50:41;;;;;;;0.37;0.37;;;;;;;22.07;80.79;98388.50;4933244;29;20231;-62
2022/08/14 04:53:09;;;;;;;0.97;0.83;;;;;;;22.10;81.23;98382.91;4933151;29;20293;-63
2022/08/14 04:55:36;;;;;;;0.40;0.40;;;;;;;22.09;80.83;98380.50;4933304;29;20220;-63
2022/08/14 04:58:05;;;;;;;1.13;0.90;;;;;;;22.13;80.75;98386.91;4932723;29;20199;-63
2022/08/14 05:00:32;;;;;;;1.03;0.87;;;;;;;22.11;80.63;98391.53;4932988;29;20229;-63
2022/08/14 05:03:02;;;;;;;0.67;0.67;;;;;;;22.16;80.61;98383.91;4933148;29;20696;-63
2022/08/14 05:05:30;;;;;;;0.87;0.73;;;;;;;22.18;80.44;98389.75;4932841;29;20238;-63
2022/08/14 05:07:56;;;;;;;4.37;1.10;;;;;;;22.25;80.29;98380.13;4932964;29;20246;-63
2022/08/14 05:10:24;;;;;;;0.70;0.70;;;;;;;22.29;80.23;98383.13;4932780;29;20235;-63
2022/08/14 05:12:52;;;;;;;1.73;0.87;;;;;;;22.31;79.42;98383.69;4933152;29;20352;-63
2022/08/14 05:15:21;;;;;;;1.38;1.02;;;;;;;22.37;79.55;98383.69;4932054;29;20227;-63
2022/08/14 05:17:48;;;;;;;1.03;0.83;;;;;;;22.40;79.56;98382.50;4932783;29;20222;-63
2022/08/14 05:20:15;;;;;;;1.37;1.00;;;;;;;22.41;79.76;98389.31;4932633;29;20282;-63
2022/08/14 05:22:44;;;;;;;1.00;0.80;;;;;;;22.46;80.20;98391.31;4932888;29;20202;-63
2022/08/14 05:25:11;;;;;;;1.00;0.90;;;;;;;22.43;79.25;98396.91;4932509;29;20222;-63
2022/08/14 05:27:38;;;;;;;0.80;0.70;;;;;;;22.43;79.32;98409.91;4932431;29;20270;-63
2022/08/14 05:30:07;;;;;;;1.10;0.77;;;;;;;22.47;79.53;98403.31;4932777;29;20223;-63
2022/08/14 05:32:35;;;;;;;1.23;1.07;;;;;;;22.52;79.74;98408.72;4932367;29;20597;-63
2022/08/14 05:35:02;;;;;;;2.10;0.97;;;;;;;22.61;79.34;98412.69;4932756;29;20219;-63
2022/08/14 05:37:29;;;;;;;2.53;1.30;;;;;;;22.61;79.24;98407.50;4932446;29;20199;-63
2022/08/14 05:39:57;;;;;;;1.05;0.93;;;;;;;22.57;79.25;98414.09;4932631;29;20223;-64
2022/08/14 05:42:24;;;;;;;1.50;0.90;;;;;;;22.58;79.47;98415.72;4932338;29;20219;-65
2022/08/14 05:44:50;;;;;;;1.17;1.07;;;;;;;22.66;78.74;98418.09;4932495;29;20234;-65
2022/08/14 05:47:17;;;;;;;0.70;0.70;;;;;;;22.59;79.28;98412.09;4932577;29;20211;-65
2022/08/14 05:49:47;;;;;;;1.17;0.87;;;;;;;22.65;79.36;98411.28;4932398;29;20609;-65
2022/08/14 05:52:14;;;;;;;0.67;0.67;;;;;;;22.68;78.95;98408.25;4932280;29;20411;-65
2022/08/14 05:54:41;;;;;;;0.40;0.40;;;;;;;22.77;78.66;98414.84;4932445;29;20246;-64
2022/08/14 05:57:08;;;;;;;0.90;0.90;;;;;;;22.80;78.58;98419.63;4932008;29;20211;-64
2022/08/14 05:59:35;;;;;;;1.10;0.93;;;;;;;22.91;78.17;98420.81;4932368;29;20231;-64
2022/08/14 06:02:02;;;;;;;0.45;0.45;;;;;;;23.05;78.23;98425.00;4932232;29;20214;-63
2022/08/14 06:04:29;;;;;;;2.17;1.08;;;;;;;23.08;78.38;98418.56;4932080;29;20736;-63
2022/08/14 06:06:57;;;;;;;1.17;0.88;;;;;;;23.21;78.17;98415.91;4932178;29;20489;-63
2022/08/14 06:09:24;;;;;;;0.75;0.73;;;;;;;23.28;77.17;98416.66;4931898;29;20255;-64
2022/08/14 06:11:51;;;;;;;1.20;0.90;;;;;;;23.47;77.39;98416.75;4931893;29;20208;-64
2022/08/14 06:14:18;;;;;;;1.23;0.82;;;;;;;23.63;76.00;98423.28;4931972;29;20235;-65
2022/08/14 06:16:46;;;;;;;0.90;0.77;;;;;;;23.67;75.33;98421.84;4932118;29;20748;-65
2022/08/14 06:19:13;;;;;;;1.30;1.02;;;;;;;23.66;75.03;98420.25;4932001;29;20199;-65
2022/08/14 06:21:40;;;;;;;1.13;0.85;;;;;;;23.80;75.31;98421.00;4932032;29;20597;-65
2022/08/14 06:24:09;;;;;;;1.10;0.98;;;;;;;23.77;75.06;98426.63;4931953;29;20724;-65
2022/08/14 06:26:35;;;;;;;1.40;1.25;;;;;;;23.90;74.16;98429.13;4935141;29;20210;-65
2022/08/14 06:29:03;;;;;;;1.63;1.30;;;;;;;23.99;74.81;98437.50;4935790;29;20235;-63
2022/08/14 06:31:29;;;;;;;1.80;1.25;;;;;;;24.05;74.12;98437.44;4935853;29;20635;-64
2022/08/14 06:33:56;;;;;;;1.60;1.17;;;;;;;24.04;73.43;98437.66;4935575;29;20212;-63
2022/08/14 06:36:23;;;;;;;2.13;1.63;;;;;;;24.10;73.21;98436.81;4935676;29;20204;-63
2022/08/14 06:38:52;;;;;;;1.45;1.27;;;;;;;24.28;73.21;98441.25;4935471;29;20595;-63
2022/08/14 06:41:21;;;;;;;1.70;1.25;;;;;;;24.35;73.92;98431.56;4935863;29;20679;-63
2022/08/14 06:43:47;;;;;;;2.15;1.27;;;;;;;24.39;72.51;98422.28;4935303;29;20208;-63
2022/08/14 06:46:15;;;;;;;1.42;0.95;;;;;;;24.47;73.58;98429.88;4935511;29;20223;-63
2022/08/14 06:48:42;;;;;;;1.10;1.00;;;;;;;24.56;71.76;98433.00;4935441;29;20231;-64
2022/08/14 06:51:10;;;;;;;1.60;1.23;;;;;;;24.71;73.04;98430.81;4935590;29;20226;-65
2022/08/14 06:53:37;;;;;;;2.08;1.20;;;;;;;24.79;71.82;98432.34;4935717;29;20230;-66
2022/08/14 06:56:04;;;;;;;1.73;1.23;;;;;;;24.71;71.75;98430.00;4935638;29;20234;-65
2022/08/14 06:58:32;;;;;;;1.23;0.80;;;;;;;24.74;70.43;98430.38;4935574;29;20214;-65
2022/08/14 07:06:29;;;;;;;1.02;0.90;;;;;;;24.78;70.31;98435.97;4935223;29;20211;-63
2022/08/14 07:08:56;;;;;;;1.92;1.15;;;;;;;24.91;72.04;98440.25;4935317;29;20254;-63
2022/08/14 07:11:23;;;;;;;0.95;0.95;;;;;;;24.91;71.08;98441.03;4935092;29;20204;-62
2022/08/14 07:13:51;;;;;;;1.08;0.93;;;;;;;25.06;71.15;98448.50;4934916;29;20208;-63
2022/08/14 07:16:18;;;;;;;1.65;1.30;;;;;;;24.98;70.81;98449.59;4934893;29;20229;-62
2022/08/14 07:18:45;;;;;;;1.73;1.08;;;;;;;24.92;70.91;98452.31;4935421;29;20211;-65
2022/08/14 07:21:11;;;;;;;2.17;1.30;;;;;;;24.91;71.07;98451.50;4934974;29;20294;-65
2022/08/14 07:23:39;;;;;;;1.38;1.23;;;;;;;25.02;69.96;98453.38;4934921;29;20728;-64
2022/08/14 07:26:06;;;;;;;1.08;0.93;;;;;;;25.13;71.07;98451.03;4934990;29;20717;-63
2022/08/14 07:28:34;;;;;;;1.80;1.20;;;;;;;25.20;71.10;98455.22;4934715;29;20231;-63
2022/08/14 07:31:05;;;;;;;0.90;0.90;;;;;;;25.36;70.28;98459.00;4934608;29;20223;-63
2022/08/14 07:33:35;;;;;;;1.27;1.02;;;;;;;25.57;69.67;98465.59;4934683;29;20196;-63
2022/08/14 07:36:05;;;;;;;1.73;1.10;;;;;;;25.56;68.08;98471.03;4934939;29;20256;-62
2022/08/14 07:38:32;;;;;;;1.52;1.20;;;;;;;25.70;69.34;98468.00;4933969;29;20218;-65
2022/08/14 07:40:59;;;;;;;1.00;0.90;;;;;;;25.77;68.28;98465.28;4934622;29;20236;-65
2022/08/14 07:43:26;;;;;;;1.40;1.10;;;;;;;25.85;68.23;98472.84;4934706;29;20218;-65
2022/08/14 07:45:53;;;;;;;0.85;0.82;;;;;;;25.77;67.20;98467.91;4934426;29;20243;-62
2022/08/14 07:48:22;;;;;;;1.63;1.23;;;;;;;25.77;68.45;98470.53;4934446;29;20254;-65
2022/08/14 07:50:49;;;;;;;2.55;1.58;;;;;;;25.92;67.36;98470.94;4934617;29;20286;-65
2022/08/14 07:53:16;;;;;;;1.42;1.08;;;;;;;26.10;66.40;98469.25;4934233;29;20200;-65
2022/08/14 07:55:44;;;;;;;1.13;1.02;;;;;;;26.23;66.38;98479.50;4934551;29;20224;-65
2022/08/14 07:58:10;;;;;;;1.10;1.00;;;;;;;26.29;66.70;98478.59;4934004;29;20279;-65
2022/08/14 08:00:38;;;;;;;1.45;1.08;;;;;;;26.20;63.90;98487.81;4934574;29;20231;-65
2022/08/14 08:03:08;;;;;;;1.10;1.00;;;;;;;26.34;65.96;98486.59;4934058;29;20827;-65
2022/08/14 08:05:38;;;;;;;1.23;1.10;;;;;;;26.31;64.28;98481.78;4934385;29;20709;-65
2022/08/14 08:08:06;;;;;;;1.52;1.42;;;;;;;26.42;65.54;98478.38;4933914;29;20262;-65
2022/08/14 08:10:35;;;;;;;0.70;0.70;;;;;;;26.55;64.46;98481.81;4934019;29;20246;-62
2022/08/14 08:13:06;;;;;;;1.67;0.98;;;;;;;26.64;63.06;98483.06;4933951;29;20203;-63
2022/08/14 08:15:36;;;;;;;1.50;1.30;;;;;;;26.62;62.20;98472.03;4934259;29;20220;-63
2022/08/14 08:18:03;;;;;;;1.40;1.20;;;;;;;26.80;64.23;98464.00;4933928;29;20205;-65
2022/08/14 08:20:32;;;;;;;2.15;1.35;;;;;;;26.94;63.16;98458.53;4927510;29;20216;-65
2022/08/14 08:23:01;;;;;;;0.88;0.70;;;;;;;26.98;61.43;98446.50;4928735;29;20212;-65
2022/08/14 08:25:30;;;;;;;1.10;0.82;;;;;;;26.68;61.60;98455.38;4933687;29;20223;-65
2022/08/14 08:28:00;;;;;;;1.10;1.00;;;;;;;26.70;62.68;98448.06;4933663;29;20200;-66
2022/08/14 08:30:27;;;;;;;1.95;1.45;;;;;;;26.85;63.62;98451.00;4932911;29;20819;-65
2022/08/14 08:32:56;;;;;;;1.48;1.08;;;;;;;26.90;62.54;98442.41;4933519;29;20711;-64
2022/08/14 08:35:26;;;;;;;1.50;1.10;;;;;;;27.10;61.56;98440.19;4933696;29;20314;-64
2022/08/14 08:37:55;;;;;;;1.10;0.88;;;;;;;27.06;63.34;98431.19;4933314;29;20199;-64
2022/08/14 08:40:25;;;;;;;0.95;0.80;;;;;;;27.14;60.50;98427.41;4933383;29;20231;-64
2022/08/14 08:42:52;;;;;;;2.28;1.58;;;;;;;27.17;60.86;98426.97;4928100;29;20223;-64
2022/08/14 08:45:20;;;;;;;1.45;1.15;;;;;;;27.26;60.54;98428.19;4933660;29;20231;-64
2022/08/14 08:47:49;;;;;;;1.23;1.13;;;;;;;27.37;60.43;98420.47;4933177;29;20204;-64
2022/08/14 08:50:21;;;;;;;2.03;1.17;;;;;;;27.69;61.10;98413.69;4932259;29;20298;-61
2022/08/14 08:52:53;;;;;;;2.42;1.55;;;;;;;27.97;58.05;98414.66;4929439;29;20246;-61
2022/08/14 08:55:32;;;;;;;1.45;1.10;;;;;;;28.30;57.49;98408.53;4921896;29;20260;-61
2022/08/14 08:58:02;;;;;;;1.23;1.10;;;;;;;28.65;58.15;98400.38;4913949;29;20239;-61
2022/08/14 09:00:32;;;;;;;1.83;1.10;;;;;;;29.10;54.86;98406.41;4914125;29;20231;-61
2022/08/14 09:03:03;;;;;;;2.05;1.25;;;;;;;29.26;53.28;98404.69;4914192;29;20196;-61
2022/08/14 09:05:31;;;;;;;3.13;1.45;;;;;;;29.52;54.96;98398.63;4913730;29;20232;-61
2022/08/14 09:08:12;;;;;;;1.00;1.00;;;;;;;29.52;54.75;98393.34;4913895;29;20204;-61
2022/08/14 09:10:41;;;;;;;2.05;1.30;;;;;;;29.68;52.80;98388.25;4914134;29;20239;-61
2022/08/14 09:13:11;;;;;;;1.27;1.15;;;;;;;29.60;51.44;98394.72;4913668;29;20208;-61
2022/08/14 09:15:40;;;;;;;1.15;0.98;;;;;;;29.31;52.34;98386.31;4912551;29;20231;-62
2022/08/14 09:18:08;;;;;;;1.20;1.00;;;;;;;29.77;54.57;98386.72;4913808;29;20227;-61
2022/08/14 09:20:37;;;;;;;0.95;0.88;;;;;;;29.88;51.19;98387.59;4913546;29;20239;-61
2022/08/14 09:23:04;;;;;;;1.00;0.90;;;;;;;29.99;49.43;98395.31;4913572;29;20675;-61
2022/08/14 09:25:32;;;;;;;1.10;0.77;;;;;;;30.15;49.18;98390.13;4913449;29;20729;-62
2022/08/14 09:28:00;;;;;;;1.25;1.15;;;;;;;30.36;50.98;98394.47;4913665;29;20204;-61
2022/08/14 09:30:28;;;;;;;1.23;0.82;;;;;;;30.63;48.83;98391.72;4913471;29;20266;-61
2022/08/14 09:33:33;;;;;;;0.80;0.80;;;;;;;30.67;48.53;98387.50;4913419;29;20215;-65
2022/08/14 09:36:15;;;;;;;4.50;1.02;;;;;;;30.48;50.71;98394.25;4873249;29;20229;-65
2022/08/14 09:38:52;;;;;;;1.40;0.95;;;;;;;30.44;51.91;98394.00;4908080;29;20295;-66
2022/08/14 09:41:34;;;;;;;1.20;0.90;;;;;;;30.18;51.01;98394.88;4913096;29;20226;-66
2022/08/14 09:44:07;;;;;;;1.52;1.27;;;;;;;30.20;50.54;98392.81;4913146;29;20267;-65
2022/08/14 09:46:35;;;;;;;1.48;1.27;;;;;;;29.99;53.46;98397.13;4912499;29;20689;-65
2022/08/14 09:49:03;;;;;;;1.30;1.20;;;;;;;30.21;51.24;98399.69;4913016;29;20243;-67
2022/08/14 09:51:31;;;;;;;1.65;1.20;;;;;;;30.10;51.79;98398.00;4913425;29;20208;-65
2022/08/14 09:54:05;;;;;;;1.08;0.98;;;;;;;30.21;50.50;98389.13;4913153;29;20704;-67
2022/08/14 09:56:44;;;;;;;2.65;1.90;;;;;;;29.85;50.58;98394.16;4913175;29;20718;-66
2022/08/14 09:59:16;;;;;;;1.33;1.23;;;;;;;29.49;50.56;98404.38;4912897;29;20207;-66
2022/08/14 10:01:44;;;;;;;1.00;0.90;;;;;;;29.40;50.90;98399.84;4912922;29;20248;-67
2022/08/14 10:04:19;;;;;;;0.85;0.80;;;;;;;29.72;51.10;98394.59;4913215;29;20216;-66
2022/08/14 10:06:47;;;;;;;1.30;1.10;;;;;;;29.91;49.75;98389.72;4913367;29;20236;-66
2022/08/14 10:09:14;;;;;;;0.57;0.57;;;;;;;29.95;50.42;98391.59;4912354;29;20761;-63
2022/08/14 10:11:52;;;;;;;1.00;0.93;;;;;;;29.97;48.25;98405.31;4913300;29;20302;-63
2022/08/14 10:14:23;;;;;;;0.90;0.90;;;;;;;29.72;47.45;98400.66;4913037;29;20231;-66
2022/08/14 10:16:53;;;;;;;3.78;0.80;;;;;;;29.61;48.29;98398.94;4913157;29;20204;-66
2022/08/14 10:19:22;;;;;;;1.20;0.85;;;;;;;29.99;47.80;98399.78;4912903;29;20262;-63
2022/08/14 10:21:59;;;;;;;1.42;1.23;;;;;;;30.00;46.83;98409.28;4912942;29;20211;-65
2022/08/14 10:24:28;;;;;;;1.13;1.02;;;;;;;30.11;48.22;98412.78;4913078;29;20220;-63
2022/08/14 10:26:55;;;;;;;1.10;0.93;;;;;;;30.11;48.31;98421.50;4912886;29;20709;-64
2022/08/14 10:29:33;;;;;;;2.45;1.27;;;;;;;30.16;48.23;98418.06;4912791;29;20698;-65
2022/08/14 10:32:01;;;;;;;0.90;0.73;;;;;;;30.29;47.81;98412.38;4912860;29;20204;-65
2022/08/14 10:34:33;;;;;;;1.27;1.00;;;;;;;30.20;48.56;98408.63;4912942;29;20725;-65
2022/08/14 10:37:06;;;;;;;1.02;0.93;;;;;;;30.49;48.38;98410.91;4912886;29;20244;-64
2022/08/14 10:39:34;;;;;;;0.95;0.82;;;;;;;30.56;46.83;98406.97;4912984;29;20706;-65
2022/08/14 10:42:03;;;;;;;1.35;1.00;;;;;;;30.32;47.90;98417.16;4912820;29;20299;-61
2022/08/14 10:44:35;;;;;;;1.40;1.10;;;;;;;30.42;47.03;98417.19;4912853;29;20236;-64
2022/08/14 10:47:04;;;;;;;0.80;0.65;;;;;;;29.85;49.25;98430.28;4912864;29;20205;-63
2022/08/14 10:49:32;;;;;;;1.38;1.13;;;;;;;29.72;48.86;98431.47;4912729;29;20240;-63
2022/08/14 10:52:05;;;;;;;1.48;1.05;;;;;;;29.49;51.39;98433.34;4912579;29;20211;-64
2022/08/14 10:54:34;;;;;;;1.60;1.50;;;;;;;29.26;51.14;98423.13;4912704;29;20255;-65
2022/08/14 10:57:12;;;;;;;1.20;0.88;;;;;;;29.11;51.85;98436.94;4912821;29;20252;-63
2022/08/14 10:59:46;;;;;;;1.00;0.90;;;;;;;28.88;50.97;98435.34;4912676;29;20232;-64
2022/08/14 11:02:28;;;;;;;1.08;0.98;;;;;;;28.48;52.85;98446.16;4912759;29;20207;-64
2022/08/14 11:04:59;;;;;;;4.88;2.85;;;;;;;28.07;54.11;98451.63;4912754;29;20709;-64
2022/08/14 11:07:26;;;;;;;2.58;1.83;;;;;;;28.25;54.29;98444.50;4912853;29;20239;-64
2022/08/14 11:09:54;;;;;;;1.58;1.33;;;;;;;28.14;55.09;98444.34;4912506;29;20240;-65
2022/08/14 11:12:21;;;;;;;2.03;1.33;;;;;;;27.96;55.68;98445.41;4913474;29;20208;-65
2022/08/14 11:14:54;;;;;;;1.40;1.30;;;;;;;27.41;58.33;98450.50;4915938;29;20227;-65
2022/08/14 11:17:24;;;;;;;1.92;1.52;;;;;;;27.29;59.27;98450.56;4916192;29;20193;-65
2022/08/14 11:19:57;;;;;;;1.20;1.08;;;;;;;26.95;58.35;98446.97;4916098;29;20227;-65
2022/08/14 11:22:28;;;;;;;1.20;1.10;;;;;;;26.77;61.36;98443.50;4915688;29;20681;-65
2022/08/14 11:24:59;;;;;;;2.10;1.20;;;;;;;26.91;58.98;98446.66;4915613;29;20220;-64
2022/08/14 11:27:27;;;;;;;1.83;1.10;;;;;;;26.83;57.11;98439.16;4915764;29;20196;-66
2022/08/14 11:29:59;;;;;;;0.70;0.70;;;;;;;26.97;58.32;98437.84;4915720;29;20240;-67
2022/08/14 11:32:26;;;;;;;2.22;1.00;;;;;;;27.29;57.62;98434.81;4916241;29;20208;-68
2022/08/14 11:34:53;;;;;;;1.77;1.33;;;;;;;27.50;56.67;98435.94;4915639;29;20231;-63
2022/08/14 11:37:21;;;;;;;0.65;0.65;;;;;;;27.70;57.73;98433.66;4915641;29;20263;-61
2022/08/14 11:39:48;;;;;;;0.80;0.80;;;;;;;27.60;55.36;98424.81;4915541;29;20679;-62
2022/08/14 11:42:20;;;;;;;0.77;0.77;;;;;;;27.58;56.73;98438.19;4915542;29;20259;-62
2022/08/14 11:44:48;;;;;;;2.45;1.10;;;;;;;27.42;55.67;98417.94;4915298;29;20220;-61
2022/08/14 11:47:18;;;;;;;1.27;1.02;;;;;;;27.36;56.94;98418.91;4915492;29;20200;-60
2022/08/14 11:49:46;;;;;;;0.77;0.55;;;;;;;27.56;55.81;98418.47;4915328;29;20682;-61
2022/08/14 11:52:13;;;;;;;1.17;0.93;;;;;;;27.85;55.25;98406.88;4915495;29;20268;-62
2022/08/14 11:54:40;;;;;;;0.60;0.60;;;;;;;28.09;55.34;98391.72;4915015;29;20744;-62
2022/08/14 11:57:14;;;;;;;1.58;1.30;;;;;;;28.23;53.97;98383.50;4915564;29;20216;-60
2022/08/14 11:59:41;;;;;;;1.15;1.00;;;;;;;28.28;53.96;98371.22;4915147;29;20777;-61
2022/08/14 12:02:10;;;;;;;0.60;0.52;;;;;;;28.29;54.76;98369.38;4915690;29;20700;-60